createdAt,value
2022-11-27T00:01:35.744Z,-7.37
2022-11-27T00:04:04.519Z,-7.43
2022-11-27T00:06:33.386Z,-7.37
2022-11-27T00:09:03.222Z,-7.24
2022-11-27T00:11:32.814Z,-7.51
2022-11-27T00:14:02.783Z,-7.21
2022-11-27T00:16:31.204Z,-7.27
2022-11-27T00:18:59.637Z,-7.32
2022-11-27T00:21:30.496Z,-7.44
2022-11-27T00:24:01.147Z,-7.36
2022-11-27T00:26:35.981Z,-7.28
2022-11-27T00:29:07.815Z,-7.40
2022-11-27T00:31:39.142Z,-7.63
2022-11-27T00:34:09.197Z,-7.39
2022-11-27T00:36:37.591Z,-7.56
2022-11-27T00:39:06.018Z,-7.22
2022-11-27T00:41:34.366Z,-7.23
2022-11-27T00:44:02.631Z,-7.37
2022-11-27T00:46:34.871Z,-7.20
2022-11-27T00:49:04.990Z,-7.13
2022-11-27T00:51:33.593Z,-7.13
2022-11-27T00:54:02.099Z,-7.05
2022-11-27T00:56:31.741Z,-7.21
2022-11-27T00:59:00.374Z,-7.16
2022-11-27T01:01:31.151Z,-7.27
2022-11-27T01:04:02.613Z,-7.37
2022-11-27T01:06:31.695Z,-7.23
2022-11-27T01:09:00.445Z,-7.23
2022-11-27T01:11:30.298Z,-7.16
2022-11-27T01:14:00.121Z,-7.33
2022-11-27T01:16:30.552Z,-7.13
2022-11-27T01:19:01.430Z,-7.10
2022-11-27T01:21:32.410Z,-7.29
2022-11-27T01:24:01.547Z,-7.21
2022-11-27T01:26:29.942Z,-7.22
2022-11-27T01:28:59.143Z,-7.17
2022-11-27T01:31:28.821Z,-7.14
2022-11-27T01:33:59.145Z,-7.17
2022-11-27T01:36:29.225Z,-7.30
2022-11-27T01:38:57.741Z,-7.27
2022-11-27T01:41:29.290Z,-7.24
2022-11-27T01:43:59.455Z,-7.28
2022-11-27T01:46:34.699Z,-7.18
2022-11-27T01:49:15.885Z,-7.12
2022-11-27T01:51:47.908Z,-7.17
2022-11-27T01:54:17.159Z,-7.19
2022-11-27T01:56:46.316Z,-7.17
2022-11-27T01:59:14.920Z,-7.44
2022-11-27T02:01:43.289Z,-7.14
2022-11-27T02:04:11.742Z,-7.18
2022-11-27T02:06:40.119Z,-7.20
2022-11-27T02:09:09.775Z,-7.31
2022-11-27T02:11:43.995Z,-7.21
2022-11-27T02:14:16.458Z,-7.17
2022-11-27T02:16:49.789Z,-7.16
2022-11-27T02:19:26.750Z,-7.14
2022-11-27T02:22:00.153Z,-7.13
2022-11-27T02:24:44.341Z,-7.08
2022-11-27T02:27:49.480Z,-7.06
2022-11-27T02:30:19.349Z,-7.07
2022-11-27T02:32:51.264Z,-6.93
2022-11-27T02:35:22.187Z,-6.93
2022-11-27T02:37:53.092Z,-6.99
2022-11-27T02:40:24.610Z,-6.94
2022-11-27T02:42:56.670Z,-6.80
2022-11-27T02:45:29.647Z,-6.74
2022-11-27T02:47:58.486Z,-6.95
2022-11-27T02:50:28.403Z,-6.89
2022-11-27T02:53:01.203Z,-6.91
2022-11-27T02:55:32.581Z,-6.80
2022-11-27T02:58:03.741Z,-6.90
2022-11-27T03:00:34.482Z,-6.87
2022-11-27T03:03:05.547Z,-6.87
2022-11-27T03:05:36.907Z,-7.02
2022-11-27T03:08:08.015Z,-6.89
2022-11-27T03:10:45.336Z,-6.96
2022-11-27T03:13:13.706Z,-6.79
2022-11-27T03:15:50.334Z,-6.76
2022-11-27T03:18:22.957Z,-6.71
2022-11-27T03:20:57.693Z,-6.74
2022-11-27T03:23:26.028Z,-6.73
2022-11-27T03:25:54.322Z,-6.76
2022-11-27T03:28:22.924Z,-6.90
2022-11-27T03:30:54.975Z,-6.76
2022-11-27T03:33:23.276Z,-6.68
2022-11-27T03:35:51.607Z,-6.70
2022-11-27T03:38:19.904Z,-6.59
2022-11-27T03:40:56.488Z,-6.56
2022-11-27T03:43:27.972Z,-6.57
2022-11-27T03:46:00.126Z,-6.54
2022-11-27T03:48:33.592Z,-6.44
2022-11-27T03:51:07.296Z,-6.45
2022-11-27T03:53:41.236Z,-6.47
2022-11-27T03:56:15.044Z,-6.45
2022-11-27T03:58:47.487Z,-6.40
2022-11-27T04:01:18.976Z,-6.40
2022-11-27T04:03:47.291Z,-6.35
2022-11-27T04:06:15.612Z,-6.34
2022-11-27T04:08:44.134Z,-6.22
2022-11-27T04:11:12.447Z,-6.27
2022-11-27T04:13:40.747Z,-6.36
2022-11-27T04:16:09.613Z,-6.28
2022-11-27T04:18:39.340Z,-6.31
2022-11-27T04:21:07.648Z,-6.25
2022-11-27T04:23:37.784Z,-6.61
2022-11-27T04:26:06.445Z,-6.28
2022-11-27T04:28:34.698Z,-6.22
2022-11-27T04:31:03.172Z,-6.26
2022-11-27T04:33:31.816Z,-6.23
2022-11-27T04:36:01.468Z,-6.23
2022-11-27T04:38:29.860Z,-6.27
2022-11-27T04:40:58.554Z,-6.23
2022-11-27T04:43:26.828Z,-6.11
2022-11-27T04:45:55.199Z,-6.05
2022-11-27T04:48:23.472Z,-5.95
2022-11-27T04:50:51.742Z,-6.00
2022-11-27T04:53:21.362Z,-6.01
2022-11-27T04:55:49.633Z,-5.98
2022-11-27T04:58:17.934Z,-5.97
2022-11-27T05:00:46.243Z,-5.95
2022-11-27T05:03:14.715Z,-5.86
2022-11-27T05:05:43.039Z,-5.76
2022-11-27T05:08:11.382Z,-5.88
2022-11-27T05:10:41.080Z,-5.95
2022-11-27T05:13:09.360Z,-5.83
2022-11-27T05:15:37.688Z,-5.75
2022-11-27T05:18:06.368Z,-5.79
2022-11-27T05:20:34.609Z,-5.70
2022-11-27T05:23:03.417Z,-5.71
2022-11-27T05:25:31.857Z,-5.65
2022-11-27T05:28:01.993Z,-5.66
2022-11-27T05:30:30.331Z,-5.76
2022-11-27T05:32:58.615Z,-5.70
2022-11-27T05:35:26.984Z,-5.70
2022-11-27T05:37:55.344Z,-5.63
2022-11-27T05:40:23.645Z,-5.58
2022-11-27T05:42:51.945Z,-5.53
2022-11-27T05:45:21.602Z,-5.47
2022-11-27T05:47:49.916Z,-5.57
2022-11-27T05:50:18.366Z,-5.66
2022-11-27T05:52:46.658Z,-5.52
2022-11-27T05:55:15.153Z,-5.44
2022-11-27T05:57:43.396Z,-5.38
2022-11-27T06:00:13.120Z,-5.29
2022-11-27T06:02:43.207Z,-5.52
2022-11-27T06:05:11.583Z,-5.44
2022-11-27T06:07:39.915Z,-5.30
2022-11-27T06:10:09.359Z,-5.28
2022-11-27T06:12:37.682Z,-5.36
2022-11-27T06:15:06.452Z,-5.08
2022-11-27T06:17:34.784Z,-5.00
2022-11-27T06:20:05.446Z,-5.05
2022-11-27T06:22:33.743Z,-5.01
2022-11-27T06:25:02.107Z,-4.92
2022-11-27T06:27:34.053Z,-5.08
2022-11-27T06:30:02.450Z,-5.06
2022-11-27T06:32:32.099Z,-5.01
2022-11-27T06:35:00.442Z,-4.98
2022-11-27T06:37:30.177Z,-5.00
2022-11-27T06:39:58.469Z,-5.08
2022-11-27T06:42:29.199Z,-5.23
2022-11-27T06:44:57.608Z,-4.96
2022-11-27T06:47:25.999Z,-4.98
2022-11-27T06:49:54.375Z,-4.99
2022-11-27T06:52:23.027Z,-4.90
2022-11-27T06:54:52.726Z,-4.92
2022-11-27T06:57:21.024Z,-4.84
2022-11-27T06:59:50.004Z,-4.79
2022-11-27T07:02:18.444Z,-4.89
2022-11-27T07:04:47.140Z,-5.06
2022-11-27T07:07:15.951Z,-4.89
2022-11-27T07:09:44.287Z,-4.91
2022-11-27T07:12:14.751Z,-4.94
2022-11-27T07:14:45.983Z,-4.80
2022-11-27T07:17:15.163Z,-4.84
2022-11-27T07:19:43.446Z,-4.70
2022-11-27T07:22:11.957Z,-4.80
2022-11-27T07:24:40.393Z,-4.61
2022-11-27T07:27:08.877Z,-4.48
2022-11-27T07:29:39.628Z,-4.40
2022-11-27T07:32:08.811Z,-4.43
2022-11-27T07:34:37.192Z,-4.32
2022-11-27T07:37:05.744Z,-4.36
2022-11-27T07:40:00.373Z,-4.22
2022-11-27T07:42:37.453Z,-4.31
2022-11-27T07:45:10.308Z,-4.30
2022-11-27T07:47:39.572Z,-4.20
2022-11-27T07:50:09.123Z,-4.26
2022-11-27T07:52:41.615Z,-4.08
2022-11-27T07:55:11.158Z,-4.06
2022-11-27T07:57:39.492Z,-4.04
2022-11-27T08:00:10.766Z,-4.15
2022-11-27T08:02:39.130Z,-3.96
2022-11-27T08:05:12.734Z,-4.24
2022-11-27T08:07:41.814Z,-3.92
2022-11-27T08:10:10.454Z,-3.85
2022-11-27T08:12:38.789Z,-3.90
2022-11-27T08:15:09.931Z,-3.76
2022-11-27T08:17:38.253Z,-3.94
2022-11-27T08:20:08.176Z,-3.69
2022-11-27T08:22:36.664Z,-3.79
2022-11-27T08:25:05.496Z,-3.64
2022-11-27T08:27:34.090Z,-3.67
2022-11-27T08:30:02.521Z,-3.52
2022-11-27T08:32:33.722Z,-3.49
2022-11-27T08:35:02.701Z,-3.41
2022-11-27T08:37:31.626Z,-3.51
2022-11-27T08:39:59.932Z,-3.18
2022-11-27T08:42:28.427Z,-3.22
2022-11-27T08:44:56.809Z,-3.38
2022-11-27T08:47:25.291Z,-3.36
2022-11-27T08:49:55.023Z,-2.99
2022-11-27T08:52:23.364Z,-2.96
2022-11-27T08:54:57.197Z,-3.21
2022-11-27T08:57:26.131Z,-3.00
2022-11-27T08:59:54.649Z,-3.28
2022-11-27T09:02:22.977Z,-3.39
2022-11-27T09:04:51.501Z,-3.32
2022-11-27T09:07:21.286Z,-3.52
2022-11-27T09:09:49.861Z,-3.05
2022-11-27T09:12:18.248Z,-2.98
2022-11-27T09:14:46.595Z,-2.99
2022-11-27T09:17:14.930Z,-3.03
2022-11-27T09:19:43.229Z,-2.97
2022-11-27T09:22:11.553Z,-3.11
2022-11-27T09:24:41.553Z,-3.37
2022-11-27T09:27:10.135Z,-3.32
2022-11-27T09:29:38.486Z,-3.23
2022-11-27T09:32:07.336Z,-3.28
2022-11-27T09:34:37.732Z,-3.17
2022-11-27T09:37:06.513Z,-3.17
2022-11-27T09:39:34.961Z,-3.05
2022-11-27T09:42:06.391Z,-3.00
2022-11-27T09:44:40.926Z,-2.90
2022-11-27T09:47:17.059Z,-2.81
2022-11-27T09:49:48.627Z,-2.80
2022-11-27T09:52:22.597Z,-2.80
2022-11-27T09:54:57.192Z,-2.92
2022-11-27T09:57:30.324Z,-3.12
2022-11-27T10:00:00.248Z,-2.86
2022-11-27T10:02:30.623Z,-2.83
2022-11-27T10:05:13.446Z,-2.93
2022-11-27T10:07:51.747Z,-2.78
2022-11-27T10:10:31.494Z,-2.88
2022-11-27T10:13:06.543Z,-2.87
2022-11-27T10:15:40.231Z,-2.76
2022-11-27T10:18:13.506Z,-2.67
2022-11-27T10:20:46.911Z,-2.67
2022-11-27T10:23:23.542Z,-2.59
2022-11-27T10:25:53.601Z,-2.42
2022-11-27T10:28:30.301Z,-2.31
2022-11-27T10:31:03.928Z,-2.13
2022-11-27T10:33:40.270Z,-2.42
2022-11-27T10:36:15.401Z,-2.23
2022-11-27T10:38:44.876Z,-2.49
2022-11-27T10:41:47.635Z,-2.05
2022-11-27T10:44:27.763Z,-1.90
2022-11-27T10:46:59.742Z,-2.06
2022-11-27T10:49:28.186Z,-2.29
2022-11-27T10:51:56.777Z,-2.46
2022-11-27T10:54:28.676Z,-2.60
2022-11-27T10:57:46.229Z,-2.51
2022-11-27T11:00:21.284Z,-2.49
2022-11-27T11:02:49.837Z,-2.49
2022-11-27T11:05:45.097Z,-2.35
2022-11-27T11:08:19.898Z,-2.57
2022-11-27T11:10:54.304Z,-2.73
2022-11-27T11:13:27.478Z,-3.10
2022-11-27T11:16:00.692Z,-2.89
2022-11-27T11:18:31.009Z,-3.09
2022-11-27T11:21:02.396Z,-2.79
2022-11-27T11:23:33.867Z,-2.88
2022-11-27T11:26:07.881Z,-3.11
2022-11-27T11:28:44.773Z,-3.30
2022-11-27T11:31:17.709Z,-2.59
2022-11-27T11:33:54.409Z,-2.56
2022-11-27T11:36:23.157Z,-2.60
2022-11-27T11:39:06.008Z,-2.97
2022-11-27T11:41:38.695Z,-2.97
2022-11-27T11:44:08.176Z,-3.05
2022-11-27T11:46:41.600Z,-3.01
2022-11-27T11:49:26.550Z,-3.34
2022-11-27T11:52:25.913Z,-3.26
2022-11-27T11:55:01.698Z,-3.35
2022-11-27T11:57:47.981Z,-3.38
2022-11-27T12:00:17.569Z,-3.44
2022-11-27T12:02:59.887Z,-4.24
2022-11-27T12:05:33.829Z,-3.48
2022-11-27T12:08:24.333Z,-3.58
2022-11-27T12:10:56.922Z,-3.63
2022-11-27T12:13:40.688Z,-3.57
2022-11-27T12:16:16.027Z,-3.63
2022-11-27T12:19:04.812Z,-3.41
2022-11-27T12:21:42.421Z,-3.56
2022-11-27T12:24:23.865Z,-3.55
2022-11-27T12:27:04.112Z,-4.12
2022-11-27T12:29:43.538Z,-3.75
2022-11-27T12:32:33.004Z,-4.15
2022-11-27T12:35:22.382Z,-3.92
2022-11-27T12:37:58.138Z,-4.15
2022-11-27T12:40:37.648Z,-4.07
2022-11-27T12:43:24.677Z,-3.97
2022-11-27T12:46:05.902Z,-3.94
2022-11-27T12:48:39.220Z,-4.53
2022-11-27T12:51:12.884Z,-3.99
2022-11-27T12:53:45.472Z,-4.02
2022-11-27T12:56:17.410Z,-4.02
2022-11-27T12:58:48.687Z,-4.17
2022-11-27T13:01:26.589Z,-4.18
2022-11-27T13:04:04.878Z,-4.48
2022-11-27T13:06:41.802Z,-4.20
2022-11-27T13:09:15.311Z,-4.25
2022-11-27T13:11:44.883Z,-4.20
2022-11-27T13:14:16.151Z,-4.33
2022-11-27T13:16:46.830Z,-4.42
2022-11-27T13:19:22.231Z,-4.74
2022-11-27T13:22:08.150Z,-4.45
2022-11-27T13:24:37.351Z,-4.52
2022-11-27T13:27:09.763Z,-4.52
2022-11-27T13:29:41.526Z,-4.53
2022-11-27T13:32:13.589Z,-4.63
2022-11-27T13:34:46.326Z,-4.51
2022-11-27T13:37:30.649Z,-4.44
2022-11-27T13:40:06.284Z,-4.61
2022-11-27T13:42:37.113Z,-4.35
2022-11-27T13:45:10.264Z,-4.31
2022-11-27T13:47:41.295Z,-4.25
2022-11-27T13:50:11.682Z,-4.55
2022-11-27T13:52:52.029Z,-4.74
2022-11-27T13:55:26.341Z,-4.42
2022-11-27T13:57:56.808Z,-4.39
2022-11-27T14:00:38.184Z,-4.32
2022-11-27T14:03:09.873Z,-4.37
2022-11-27T14:05:41.689Z,-4.52
2022-11-27T14:08:25.809Z,-4.43
2022-11-27T14:10:57.731Z,-4.32
2022-11-27T14:13:38.412Z,-4.50
2022-11-27T14:16:22.895Z,-4.25
2022-11-27T14:18:52.577Z,-4.62
2022-11-27T14:21:27.113Z,-4.32
2022-11-27T14:23:56.835Z,-4.38
2022-11-27T14:26:26.217Z,-4.33
2022-11-27T14:28:56.796Z,-4.73
2022-11-27T14:31:29.362Z,-4.35
2022-11-27T14:36:46.440Z,-4.23
2022-11-27T14:39:24.677Z,-4.25
2022-11-27T14:42:01.354Z,-4.50
2022-11-27T14:44:30.311Z,-4.90
2022-11-27T14:47:01.397Z,-4.58
2022-11-27T14:49:31.750Z,-4.45
2022-11-27T14:52:02.362Z,-4.36
2022-11-27T14:54:34.521Z,-4.31
2022-11-27T14:57:03.329Z,-4.28
2022-11-27T14:59:31.782Z,-4.27
2022-11-27T15:02:02.469Z,-4.36
2022-11-27T15:04:34.756Z,-4.27
2022-11-27T15:07:06.534Z,-4.53
2022-11-27T15:09:37.551Z,-4.37
2022-11-27T15:12:14.185Z,-4.20
2022-11-27T15:14:47.300Z,-4.37
2022-11-27T15:17:17.870Z,-4.44
2022-11-27T15:19:46.289Z,-4.57
2022-11-27T15:22:18.221Z,-4.74
2022-11-27T15:24:48.039Z,-4.96
2022-11-27T15:27:21.550Z,-4.55
2022-11-27T15:30:14.030Z,-4.71
2022-11-27T15:32:51.609Z,-4.63
2022-11-27T15:35:28.757Z,-4.59
2022-11-27T15:37:58.367Z,-4.64
2022-11-27T15:40:36.173Z,-5.09
2022-11-27T15:43:08.719Z,-4.56
2022-11-27T15:45:37.275Z,-4.63
2022-11-27T15:48:06.488Z,-4.55
2022-11-27T15:50:34.915Z,-4.63
2022-11-27T15:53:03.334Z,-4.57
2022-11-27T15:55:35.968Z,-4.57
2022-11-27T15:58:06.266Z,-4.57
2022-11-27T16:00:34.736Z,-4.56
2022-11-27T16:03:03.849Z,-4.66
2022-11-27T16:05:35.683Z,-4.61
2022-11-27T16:08:05.502Z,-4.61
2022-11-27T16:10:36.212Z,-4.62
2022-11-27T16:13:04.625Z,-4.69
2022-11-27T16:15:33.563Z,-4.80
2022-11-27T16:18:02.430Z,-4.64
2022-11-27T16:20:30.830Z,-4.62
2022-11-27T16:22:59.184Z,-4.95
2022-11-27T16:25:27.564Z,-4.44
2022-11-27T16:28:02.428Z,-4.47
2022-11-27T16:30:31.593Z,-4.47
2022-11-27T16:32:59.919Z,-4.48
2022-11-27T16:35:28.432Z,-4.49
2022-11-27T16:37:56.856Z,-4.45
2022-11-27T16:40:25.277Z,-4.64
2022-11-27T16:42:53.988Z,-4.48
2022-11-27T16:45:28.937Z,-4.46
2022-11-27T16:47:57.312Z,-4.43
2022-11-27T16:50:26.820Z,-4.58
2022-11-27T16:52:55.624Z,-4.50
2022-11-27T16:55:26.161Z,-4.64
2022-11-27T16:57:55.758Z,-4.56
2022-11-27T17:00:25.769Z,-4.53
2022-11-27T17:02:54.546Z,-4.61
2022-11-27T17:05:22.873Z,-4.52
2022-11-27T17:07:51.312Z,-4.47
2022-11-27T17:10:19.874Z,-4.33
2022-11-27T17:12:48.233Z,-4.56
2022-11-27T17:15:17.218Z,-4.80
2022-11-27T17:17:46.941Z,-4.64
2022-11-27T17:20:15.890Z,-4.66
2022-11-27T17:22:45.051Z,-4.39
2022-11-27T17:25:15.080Z,-4.35
2022-11-27T17:27:43.973Z,-4.56
2022-11-27T17:30:14.408Z,-4.61
2022-11-27T17:32:42.943Z,-4.58
2022-11-27T17:35:12.687Z,-4.53
2022-11-27T17:37:41.686Z,-4.60
2022-11-27T17:40:10.730Z,-4.75
2022-11-27T17:42:39.191Z,-4.78
2022-11-27T17:45:08.554Z,-4.72
2022-11-27T17:47:37.084Z,-4.75
2022-11-27T17:50:08.287Z,-4.74
2022-11-27T17:52:38.666Z,-4.79
2022-11-27T17:55:08.330Z,-4.75
2022-11-27T17:57:36.885Z,-4.98
2022-11-27T18:00:06.941Z,-5.00
2022-11-27T18:02:42.676Z,-4.94
2022-11-27T18:05:11.237Z,-5.33
2022-11-27T18:07:41.401Z,-4.97
2022-11-27T18:10:10.538Z,-5.00
2022-11-27T18:12:38.966Z,-5.18
2022-11-27T18:15:09.722Z,-5.01
2022-11-27T18:17:38.394Z,-5.06
2022-11-27T18:20:08.029Z,-4.99
2022-11-27T18:22:36.593Z,-5.25
2022-11-27T18:25:07.171Z,-5.17
2022-11-27T18:27:35.783Z,-4.90
2022-11-27T18:30:05.372Z,-4.89
2022-11-27T18:32:33.825Z,-5.10
2022-11-27T18:35:04.007Z,-5.16
2022-11-27T18:37:32.659Z,-5.00
2022-11-27T18:40:02.221Z,-5.28
2022-11-27T18:42:39.897Z,-4.88
2022-11-27T18:45:25.205Z,-4.84
2022-11-27T18:47:56.209Z,-4.89
2022-11-27T18:50:29.833Z,-5.17
2022-11-27T18:52:58.603Z,-5.10
2022-11-27T18:55:26.992Z,-5.22
2022-11-27T18:57:56.917Z,-5.13
2022-11-27T19:00:25.309Z,-5.03
2022-11-27T19:02:54.744Z,-4.81
2022-11-27T19:05:23.450Z,-4.74
2022-11-27T19:07:51.883Z,-4.94
2022-11-27T19:10:21.570Z,-4.85
2022-11-27T19:12:50.011Z,-4.77
2022-11-27T19:15:20.545Z,-4.80
2022-11-27T19:17:49.249Z,-4.77
2022-11-27T19:20:19.593Z,-4.69
2022-11-27T19:22:47.910Z,-4.62
2022-11-27T19:25:16.523Z,-5.01
2022-11-27T19:27:44.857Z,-5.04
2022-11-27T19:30:14.492Z,-4.99
2022-11-27T19:32:44.339Z,-4.91
2022-11-27T19:35:13.660Z,-4.82
2022-11-27T19:37:42.346Z,-4.73
2022-11-27T19:40:12.311Z,-4.92
2022-11-27T19:42:41.417Z,-5.16
2022-11-27T19:45:10.936Z,-5.09
2022-11-27T19:47:39.307Z,-4.92
2022-11-27T19:50:10.197Z,-5.08
2022-11-27T19:52:38.678Z,-4.89
2022-11-27T19:55:08.012Z,-4.88
2022-11-27T19:57:36.505Z,-4.82
2022-11-27T20:00:06.824Z,-4.94
2022-11-27T20:02:43.027Z,-4.82
2022-11-27T20:05:13.250Z,-4.87
2022-11-27T20:07:41.758Z,-4.87
2022-11-27T20:10:12.024Z,-5.15
2022-11-27T20:12:41.596Z,-4.88
2022-11-27T20:15:14.359Z,-4.97
2022-11-27T20:17:43.154Z,-4.98
2022-11-27T20:20:14.273Z,-4.95
2022-11-27T20:22:43.118Z,-4.90
2022-11-27T20:25:19.464Z,-4.85
2022-11-27T20:27:50.849Z,-5.01
2022-11-27T20:30:20.525Z,-5.14
2022-11-27T20:32:48.949Z,-5.06
2022-11-27T20:35:18.723Z,-5.07
2022-11-27T20:37:48.011Z,-5.15
2022-11-27T20:40:16.869Z,-5.19
2022-11-27T20:42:45.291Z,-5.20
2022-11-27T20:45:18.946Z,-5.23
2022-11-27T20:47:49.930Z,-5.09
2022-11-27T20:50:19.907Z,-5.21
2022-11-27T20:52:49.605Z,-5.09
2022-11-27T20:55:19.229Z,-5.04
2022-11-27T20:57:50.817Z,-5.12
2022-11-27T21:00:24.488Z,-5.25
2022-11-27T21:02:52.978Z,-5.18
2022-11-27T21:05:22.827Z,-5.37
2022-11-27T21:07:51.349Z,-5.14
2022-11-27T21:10:20.261Z,-5.12
2022-11-27T21:12:50.436Z,-5.06
2022-11-27T21:15:19.185Z,-5.16
2022-11-27T21:17:47.608Z,-5.21
2022-11-27T21:20:16.079Z,-5.20
2022-11-27T21:22:45.788Z,-5.16
2022-11-27T21:25:14.937Z,-5.18
2022-11-27T21:27:43.650Z,-5.37
2022-11-27T21:30:12.929Z,-5.13
2022-11-27T21:32:41.337Z,-5.31
2022-11-27T21:35:10.269Z,-5.25
2022-11-27T21:37:39.194Z,-5.17
2022-11-27T21:40:10.196Z,-4.94
2022-11-27T21:42:44.177Z,-4.93
2022-11-27T21:45:13.061Z,-4.88
2022-11-27T21:47:41.559Z,-4.95
2022-11-27T21:50:11.754Z,-4.81
2022-11-27T21:52:40.194Z,-4.81
2022-11-27T21:55:12.298Z,-4.76
2022-11-27T21:57:41.919Z,-4.77
2022-11-27T22:00:10.988Z,-4.87
2022-11-27T22:02:45.114Z,-4.80
2022-11-27T22:05:13.677Z,-4.96
2022-11-27T22:07:42.219Z,-4.89
2022-11-27T22:10:13.086Z,-4.78
2022-11-27T22:12:41.473Z,-4.84
2022-11-27T22:15:10.729Z,-4.89
2022-11-27T22:17:39.506Z,-4.89
2022-11-27T22:20:09.187Z,-4.97
2022-11-27T22:22:37.520Z,-4.95
2022-11-27T22:25:06.789Z,-4.91
2022-11-27T22:27:36.523Z,-4.90
2022-11-27T22:30:06.264Z,-5.12
2022-11-27T22:32:36.002Z,-4.99
2022-11-27T22:35:04.537Z,-5.27
2022-11-27T22:37:32.917Z,-5.05
2022-11-27T22:40:01.283Z,-4.96
2022-11-27T22:42:29.829Z,-4.96
2022-11-27T22:44:59.508Z,-5.00
2022-11-27T22:47:27.934Z,-5.00
2022-11-27T22:49:56.434Z,-5.16
2022-11-27T22:52:24.901Z,-5.12
2022-11-27T22:54:54.385Z,-5.11
2022-11-27T22:57:22.684Z,-5.13
2022-11-27T22:59:51.009Z,-5.06
2022-11-27T23:02:21.277Z,-5.10
2022-11-27T23:04:49.702Z,-5.06
2022-11-27T23:07:23.723Z,-5.10
2022-11-27T23:09:53.446Z,-5.28
2022-11-27T23:12:21.764Z,-4.99
2022-11-27T23:14:50.261Z,-4.96
2022-11-27T23:17:18.647Z,-5.24
2022-11-27T23:19:48.480Z,-5.03
2022-11-27T23:22:16.755Z,-5.09
2022-11-27T23:24:45.125Z,-5.07
2022-11-27T23:27:13.413Z,-5.13
2022-11-27T23:29:41.689Z,-5.31
2022-11-27T23:32:10.034Z,-5.06
2022-11-27T23:34:38.776Z,-5.07
2022-11-27T23:37:08.572Z,-5.09
2022-11-27T23:39:36.945Z,-5.06
2022-11-27T23:42:05.402Z,-5.05
2022-11-27T23:44:33.677Z,-5.10
2022-11-27T23:47:02.025Z,-5.20
2022-11-27T23:49:30.459Z,-5.17
2022-11-27T23:51:59.257Z,-5.07
2022-11-27T23:54:29.024Z,-5.04
2022-11-27T23:56:57.459Z,-5.09
2022-11-27T23:59:25.743Z,-5.16
